createdAt,value
2023-01-12T00:00:40.536Z,0.00
2023-01-12T00:01:40.476Z,0.00
2023-01-12T00:02:40.525Z,0.00
2023-01-12T00:03:40.455Z,0.00
2023-01-12T00:04:40.453Z,0.00
2023-01-12T00:05:40.453Z,0.00
2023-01-12T00:06:40.474Z,0.00
2023-01-12T00:07:40.423Z,0.00
2023-01-12T00:08:40.418Z,0.00
2023-01-12T00:09:40.415Z,0.00
2023-01-12T00:10:40.431Z,0.00
2023-01-12T00:11:40.362Z,0.00
2023-01-12T00:12:40.350Z,0.00
2023-01-12T00:13:40.364Z,0.00
2023-01-12T00:14:40.324Z,0.00
2023-01-12T00:15:40.392Z,0.00
2023-01-12T00:16:40.305Z,0.00
2023-01-12T00:17:40.332Z,0.00
2023-01-12T00:18:40.325Z,0.00
2023-01-12T00:19:40.529Z,0.00
2023-01-12T00:20:40.277Z,0.00
2023-01-12T00:21:40.275Z,0.00
2023-01-12T00:22:40.252Z,0.00
2023-01-12T00:23:40.232Z,0.00
2023-01-12T00:24:40.250Z,0.00
2023-01-12T00:25:40.214Z,0.00
2023-01-12T00:26:40.226Z,0.00
2023-01-12T00:27:40.193Z,0.00
2023-01-12T00:28:40.170Z,0.00
2023-01-12T00:29:40.187Z,0.00
2023-01-12T00:30:40.151Z,0.00
2023-01-12T00:31:40.152Z,0.00
2023-01-12T00:32:40.122Z,0.00
2023-01-12T00:33:40.126Z,0.00
2023-01-12T00:34:40.095Z,0.00
2023-01-12T00:35:40.137Z,0.00
2023-01-12T00:36:40.095Z,0.00
2023-01-12T00:37:40.093Z,0.00
2023-01-12T00:38:40.065Z,0.00
2023-01-12T00:39:42.990Z,0.00
2023-01-12T00:40:41.043Z,0.00
2023-01-12T00:41:40.027Z,0.00
2023-01-12T00:42:40.014Z,0.00
2023-01-12T00:43:40.018Z,0.00
2023-01-12T00:44:39.985Z,0.00
2023-01-12T00:45:40.009Z,0.00
2023-01-12T00:46:39.959Z,0.00
2023-01-12T00:47:39.996Z,0.00
2023-01-12T00:48:39.936Z,0.00
2023-01-12T00:49:39.934Z,0.00
2023-01-12T00:50:39.924Z,0.00
2023-01-12T00:51:39.938Z,0.00
2023-01-12T00:52:46.970Z,0.00
2023-01-12T00:53:39.895Z,0.00
2023-01-12T00:54:39.890Z,0.00
2023-01-12T00:55:39.885Z,0.00
2023-01-12T00:56:39.875Z,0.00
2023-01-12T00:57:39.867Z,0.00
2023-01-12T00:58:39.859Z,0.00
2023-01-12T00:59:39.814Z,0.00
2023-01-12T01:00:39.827Z,0.00
2023-01-12T01:01:39.914Z,0.00
2023-01-12T01:02:39.837Z,0.00
2023-01-12T01:03:39.789Z,0.00
2023-01-12T01:04:39.756Z,0.00
2023-01-12T01:05:39.756Z,0.00
2023-01-12T01:06:39.740Z,0.00
2023-01-12T01:07:39.766Z,0.00
2023-01-12T01:08:39.724Z,0.00
2023-01-12T01:09:39.708Z,0.00
2023-01-12T01:10:39.681Z,0.00
2023-01-12T01:11:39.677Z,0.00
2023-01-12T01:12:39.714Z,0.00
2023-01-12T01:13:39.656Z,0.00
2023-01-12T01:14:39.670Z,0.00
2023-01-12T01:15:39.710Z,0.00
2023-01-12T01:16:39.624Z,0.00
2023-01-12T01:17:39.630Z,0.00
2023-01-12T01:18:39.595Z,0.00
2023-01-12T01:19:39.593Z,0.00
2023-01-12T01:20:39.578Z,0.00
2023-01-12T01:21:39.562Z,0.00
2023-01-12T01:22:39.576Z,0.00
2023-01-12T01:23:39.560Z,0.00
2023-01-12T01:24:39.537Z,0.00
2023-01-12T01:25:39.523Z,0.00
2023-01-12T01:26:39.507Z,0.00
2023-01-12T01:27:39.536Z,0.00
2023-01-12T01:28:39.593Z,0.00
2023-01-12T01:29:39.517Z,0.00
2023-01-12T01:30:39.457Z,0.00
2023-01-12T01:31:39.449Z,0.00
2023-01-12T01:32:39.437Z,0.00
2023-01-12T01:33:39.464Z,0.00
2023-01-12T01:34:39.441Z,0.00
2023-01-12T01:35:39.436Z,0.00
2023-01-12T01:36:39.393Z,0.00
2023-01-12T01:37:39.404Z,0.00
2023-01-12T01:38:39.388Z,0.00
2023-01-12T01:39:39.382Z,0.00
2023-01-12T01:40:39.337Z,0.00
2023-01-12T01:41:40.181Z,0.00
2023-01-12T01:42:39.342Z,0.00
2023-01-12T01:43:39.313Z,0.00
2023-01-12T01:44:39.336Z,0.00
2023-01-12T01:45:39.307Z,0.00
2023-01-12T01:46:39.351Z,0.00
2023-01-12T01:47:39.367Z,0.00
2023-01-12T01:48:39.256Z,0.00
2023-01-12T01:49:39.270Z,0.00
2023-01-12T01:50:39.236Z,0.00
2023-01-12T01:51:39.225Z,0.00
2023-01-12T01:52:39.207Z,0.00
2023-01-12T01:53:39.208Z,0.00
2023-01-12T01:54:39.207Z,0.00
2023-01-12T01:55:39.174Z,0.00
2023-01-12T01:56:39.162Z,0.00
2023-01-12T01:57:39.160Z,0.00
2023-01-12T01:58:39.146Z,0.00
2023-01-12T01:59:39.157Z,0.00
2023-01-12T02:00:39.130Z,0.00
2023-01-12T02:01:39.308Z,0.00
2023-01-12T02:02:39.168Z,0.00
2023-01-12T02:03:39.095Z,0.00
2023-01-12T02:04:39.122Z,0.00
2023-01-12T02:05:39.087Z,0.00
2023-01-12T02:06:39.057Z,0.00
2023-01-12T02:07:39.045Z,0.00
2023-01-12T02:08:39.028Z,0.00
2023-01-12T02:09:39.022Z,0.00
2023-01-12T02:10:39.043Z,0.00
2023-01-12T02:11:39.003Z,0.00
2023-01-12T02:12:38.986Z,0.00
2023-01-12T02:13:38.975Z,0.00
2023-01-12T02:14:38.963Z,0.00
2023-01-12T02:15:38.982Z,0.00
2023-01-12T02:16:38.966Z,0.00
2023-01-12T02:17:38.923Z,0.00
2023-01-12T02:18:38.919Z,0.00
2023-01-12T02:19:38.903Z,0.00
2023-01-12T02:20:38.917Z,0.00
2023-01-12T02:21:38.883Z,0.00
2023-01-12T02:22:38.917Z,0.00
2023-01-12T02:23:38.862Z,0.00
2023-01-12T02:24:38.852Z,0.00
2023-01-12T02:25:38.858Z,0.00
2023-01-12T02:26:41.692Z,0.00
2023-01-12T02:27:38.860Z,0.00
2023-01-12T02:28:38.813Z,0.00
2023-01-12T02:29:38.804Z,0.00
2023-01-12T02:30:38.786Z,0.00
2023-01-12T02:31:38.881Z,0.00
2023-01-12T02:32:38.800Z,0.00
2023-01-12T02:33:38.768Z,0.00
2023-01-12T02:34:38.737Z,0.00
2023-01-12T02:35:38.742Z,0.00
2023-01-12T02:36:38.742Z,0.00
2023-01-12T02:37:38.705Z,0.00
2023-01-12T02:38:38.695Z,0.00
2023-01-12T02:39:39.213Z,0.00
2023-01-12T02:40:38.686Z,0.00
2023-01-12T02:41:38.696Z,0.00
2023-01-12T02:42:38.642Z,0.00
2023-01-12T02:43:38.634Z,0.00
2023-01-12T02:44:38.645Z,0.00
2023-01-12T02:45:38.610Z,0.00
2023-01-12T02:46:38.664Z,0.00
2023-01-12T02:47:38.612Z,0.00
2023-01-12T02:48:38.594Z,0.00
2023-01-12T02:49:38.562Z,0.00
2023-01-12T02:50:38.590Z,0.00
2023-01-12T02:51:38.547Z,0.00
2023-01-12T02:52:38.555Z,0.00
2023-01-12T02:53:38.522Z,0.00
2023-01-12T02:54:38.517Z,0.00
2023-01-12T02:55:38.533Z,0.00
2023-01-12T02:56:38.508Z,0.00
2023-01-12T02:57:38.472Z,0.00
2023-01-12T02:58:38.484Z,0.00
2023-01-12T02:59:38.468Z,0.00
2023-01-12T03:00:38.470Z,0.00
2023-01-12T03:01:38.468Z,0.00
2023-01-12T03:02:38.619Z,0.00
2023-01-12T03:03:38.404Z,0.00
2023-01-12T03:04:38.419Z,0.00
2023-01-12T03:05:38.385Z,0.00
2023-01-12T03:06:38.376Z,0.00
2023-01-12T03:07:38.379Z,0.00
2023-01-12T03:08:38.372Z,0.00
2023-01-12T03:09:38.335Z,0.00
2023-01-12T03:10:38.329Z,0.00
2023-01-12T03:11:38.332Z,0.00
2023-01-12T03:12:38.353Z,0.00
2023-01-12T03:13:38.288Z,0.00
2023-01-12T03:14:38.303Z,0.00
2023-01-12T03:15:38.268Z,0.00
2023-01-12T03:16:38.266Z,0.00
2023-01-12T03:17:38.280Z,0.00
2023-01-12T03:18:38.243Z,0.00
2023-01-12T03:19:38.237Z,0.00
2023-01-12T03:20:38.264Z,0.00
2023-01-12T03:21:38.211Z,0.00
2023-01-12T03:22:38.212Z,0.00
2023-01-12T03:23:38.181Z,0.00
2023-01-12T03:24:38.178Z,0.00
2023-01-12T03:25:38.156Z,0.00
2023-01-12T03:26:38.155Z,0.00
2023-01-12T03:27:38.159Z,0.00
2023-01-12T03:28:38.170Z,0.00
2023-01-12T03:29:38.121Z,0.00
2023-01-12T03:30:38.125Z,0.00
2023-01-12T03:31:38.114Z,0.00
2023-01-12T03:32:38.140Z,0.00
2023-01-12T03:33:38.083Z,0.00
2023-01-12T03:34:38.058Z,0.00
2023-01-12T03:35:38.080Z,0.00
2023-01-12T03:36:38.055Z,0.00
2023-01-12T03:37:38.052Z,0.00
2023-01-12T03:38:38.017Z,0.00
2023-01-12T03:39:38.000Z,0.00
2023-01-12T03:40:37.994Z,0.00
2023-01-12T03:41:37.973Z,0.00
2023-01-12T03:42:37.997Z,0.00
2023-01-12T03:43:37.972Z,0.00
2023-01-12T03:44:37.957Z,0.00
2023-01-12T03:45:37.928Z,0.00
2023-01-12T03:46:37.945Z,0.00
2023-01-12T03:47:37.933Z,0.00
2023-01-12T03:48:37.905Z,0.00
2023-01-12T03:49:37.882Z,0.00
2023-01-12T03:50:37.928Z,0.00
2023-01-12T03:51:37.870Z,0.00
2023-01-12T03:52:37.905Z,0.00
2023-01-12T03:53:37.848Z,0.00
2023-01-12T03:54:37.837Z,0.00
2023-01-12T03:55:37.831Z,0.00
2023-01-12T03:56:37.812Z,0.00
2023-01-12T03:57:37.835Z,0.00
2023-01-12T03:58:37.793Z,0.00
2023-01-12T03:59:37.770Z,0.00
2023-01-12T04:00:37.802Z,0.00
2023-01-12T04:01:37.888Z,0.00
2023-01-12T04:02:37.768Z,0.00
2023-01-12T04:03:40.708Z,0.00
2023-01-12T04:04:37.729Z,0.00
2023-01-12T04:05:37.719Z,0.00
2023-01-12T04:06:37.741Z,0.00
2023-01-12T04:07:37.681Z,0.00
2023-01-12T04:08:37.702Z,0.00
2023-01-12T04:09:37.676Z,0.00
2023-01-12T04:10:37.653Z,0.00
2023-01-12T04:11:37.668Z,0.00
2023-01-12T04:12:37.653Z,0.00
2023-01-12T04:13:37.624Z,0.00
2023-01-12T04:14:37.615Z,0.00
2023-01-12T04:15:37.601Z,0.00
2023-01-12T04:16:37.618Z,0.00
2023-01-12T04:17:37.569Z,0.00
2023-01-12T04:18:37.586Z,0.00
2023-01-12T04:19:37.563Z,0.00
2023-01-12T04:20:37.546Z,0.00
2023-01-12T04:21:37.552Z,0.00
2023-01-12T04:22:37.525Z,0.00
2023-01-12T04:23:37.514Z,0.00
2023-01-12T04:24:37.524Z,0.00
2023-01-12T04:25:37.503Z,0.00
2023-01-12T04:26:37.484Z,0.00
2023-01-12T04:27:37.461Z,0.00
2023-01-12T04:28:37.460Z,0.00
2023-01-12T04:29:37.435Z,0.00
2023-01-12T04:30:37.464Z,0.00
2023-01-12T04:31:37.456Z,0.00
2023-01-12T04:32:37.412Z,0.00
2023-01-12T04:33:37.397Z,0.00
2023-01-12T04:34:37.392Z,0.00
2023-01-12T04:35:37.400Z,0.00
2023-01-12T04:36:37.366Z,0.00
2023-01-12T04:37:37.369Z,0.00
2023-01-12T04:38:37.344Z,0.00
2023-01-12T04:39:37.341Z,0.00
2023-01-12T04:40:37.338Z,0.00
2023-01-12T04:41:37.307Z,0.00
2023-01-12T04:42:37.323Z,0.00
2023-01-12T04:43:37.276Z,0.00
2023-01-12T04:44:37.289Z,0.00
2023-01-12T04:45:37.394Z,0.00
2023-01-12T04:46:37.276Z,0.00
2023-01-12T04:47:37.239Z,0.00
2023-01-12T04:48:37.229Z,0.00
2023-01-12T04:49:37.215Z,0.00
2023-01-12T04:50:37.209Z,0.00
2023-01-12T04:51:37.218Z,0.00
2023-01-12T04:52:37.194Z,0.00
2023-01-12T04:53:37.189Z,0.00
2023-01-12T04:54:37.164Z,0.00
2023-01-12T04:55:37.178Z,0.00
2023-01-12T04:56:37.158Z,0.00
2023-01-12T04:57:37.131Z,0.00
2023-01-12T04:58:37.115Z,0.00
2023-01-12T04:59:37.117Z,0.00
2023-01-12T05:00:37.114Z,0.00
2023-01-12T05:01:37.214Z,0.00
2023-01-12T05:02:37.071Z,0.00
2023-01-12T05:03:37.059Z,0.00
2023-01-12T05:04:37.049Z,0.00
2023-01-12T05:05:37.036Z,0.00
2023-01-12T05:06:37.048Z,0.00
2023-01-12T05:07:37.048Z,0.00
2023-01-12T05:08:37.001Z,0.00
2023-01-12T05:09:37.014Z,0.00
2023-01-12T05:10:36.986Z,0.00
2023-01-12T05:11:36.975Z,0.00
2023-01-12T05:12:36.999Z,0.00
2023-01-12T05:13:36.940Z,0.00
2023-01-12T05:14:36.940Z,0.00
2023-01-12T05:15:36.935Z,0.00
2023-01-12T05:16:37.015Z,0.00
2023-01-12T05:17:36.924Z,0.00
2023-01-12T05:18:36.911Z,0.00
2023-01-12T05:19:36.973Z,0.00
2023-01-12T05:20:36.885Z,0.00
2023-01-12T05:21:36.862Z,0.00
2023-01-12T05:22:36.851Z,0.00
2023-01-12T05:23:36.878Z,0.00
2023-01-12T05:24:36.833Z,0.00
2023-01-12T05:25:36.821Z,0.00
2023-01-12T05:26:36.800Z,0.00
2023-01-12T05:27:36.817Z,0.00
2023-01-12T05:28:36.869Z,0.00
2023-01-12T05:29:36.763Z,0.00
2023-01-12T05:30:36.812Z,0.00
2023-01-12T05:31:36.745Z,0.00
2023-01-12T05:32:36.774Z,0.00
2023-01-12T05:33:36.719Z,0.00
2023-01-12T05:34:36.711Z,0.00
2023-01-12T05:35:36.699Z,0.00
2023-01-12T05:36:37.597Z,0.00
2023-01-12T05:37:36.672Z,0.00
2023-01-12T05:38:36.691Z,0.00
2023-01-12T05:39:36.650Z,0.00
2023-01-12T05:40:37.726Z,0.00
2023-01-12T05:41:36.629Z,0.00
2023-01-12T05:42:36.631Z,0.00
2023-01-12T05:43:36.631Z,0.00
2023-01-12T05:44:36.620Z,0.00
2023-01-12T05:45:36.628Z,0.00
2023-01-12T05:46:36.575Z,0.00
2023-01-12T05:47:36.572Z,0.00
2023-01-12T05:48:36.559Z,0.00
2023-01-12T05:49:36.539Z,0.00
2023-01-12T05:50:36.549Z,0.00
2023-01-12T05:51:36.548Z,0.00
2023-01-12T05:52:36.511Z,0.00
2023-01-12T05:53:36.542Z,0.00
2023-01-12T05:54:36.483Z,0.00
2023-01-12T05:55:36.482Z,0.00
2023-01-12T05:56:36.487Z,0.00
2023-01-12T05:57:36.459Z,0.00
2023-01-12T05:58:36.448Z,0.00
2023-01-12T05:59:36.430Z,0.00
2023-01-12T06:00:36.443Z,0.00
2023-01-12T06:01:36.429Z,0.00
2023-01-12T06:02:36.444Z,0.00
2023-01-12T06:03:36.406Z,0.00
2023-01-12T06:04:36.467Z,0.00
2023-01-12T06:05:36.356Z,0.00
2023-01-12T06:06:36.369Z,0.00
2023-01-12T06:07:36.336Z,0.00
2023-01-12T06:08:36.362Z,0.00
2023-01-12T06:09:36.327Z,0.00
2023-01-12T06:10:36.304Z,0.00
2023-01-12T06:11:36.306Z,0.00
2023-01-12T06:12:36.280Z,0.00
2023-01-12T06:13:36.276Z,0.00
2023-01-12T06:14:36.263Z,0.00
2023-01-12T06:15:36.327Z,0.00
2023-01-12T06:16:36.275Z,0.00
2023-01-12T06:17:36.252Z,0.00
2023-01-12T06:18:36.217Z,0.00
2023-01-12T06:19:36.218Z,0.00
2023-01-12T06:20:36.194Z,0.00
2023-01-12T06:21:36.185Z,0.00
2023-01-12T06:22:36.174Z,0.00
2023-01-12T06:23:36.194Z,0.00
2023-01-12T06:24:36.174Z,0.00
2023-01-12T06:25:36.131Z,0.00
2023-01-12T06:26:36.135Z,0.00
2023-01-12T06:27:36.104Z,0.00
2023-01-12T06:28:36.101Z,0.00
2023-01-12T06:29:36.122Z,0.00
2023-01-12T06:30:36.075Z,0.00
2023-01-12T06:31:36.085Z,0.00
2023-01-12T06:32:36.097Z,0.00
2023-01-12T06:33:36.060Z,0.00
2023-01-12T06:34:36.031Z,0.00
2023-01-12T06:35:36.024Z,0.00
2023-01-12T06:36:36.063Z,0.00
2023-01-12T06:37:35.998Z,4.00
2023-01-12T06:38:35.981Z,4.00
2023-01-12T06:39:35.979Z,4.00
2023-01-12T06:40:35.960Z,4.00
2023-01-12T06:41:35.988Z,0.00
2023-01-12T06:42:35.936Z,0.00
2023-01-12T06:43:35.935Z,4.00
2023-01-12T06:44:35.917Z,0.00
2023-01-12T06:45:35.908Z,4.00
2023-01-12T06:46:35.980Z,4.00
2023-01-12T06:47:35.888Z,4.00
2023-01-12T06:48:39.167Z,4.00
2023-01-12T06:49:35.868Z,4.00
2023-01-12T06:50:35.845Z,8.00
2023-01-12T06:51:35.887Z,4.00
2023-01-12T06:52:35.830Z,8.00
2023-01-12T06:53:35.822Z,12.00
2023-01-12T06:54:35.816Z,8.00
2023-01-12T06:55:35.795Z,12.00
2023-01-12T06:56:35.803Z,12.00
2023-01-12T06:57:35.778Z,12.00
2023-01-12T06:58:35.757Z,16.00
2023-01-12T06:59:38.186Z,20.00
2023-01-12T07:00:35.737Z,20.00
2023-01-12T07:01:35.915Z,20.00
2023-01-12T07:02:35.750Z,20.00
2023-01-12T07:03:35.703Z,20.00
2023-01-12T07:04:35.743Z,32.00
2023-01-12T07:05:35.735Z,32.00
2023-01-12T07:06:35.687Z,40.00
2023-01-12T07:07:35.662Z,40.00
2023-01-12T07:08:35.656Z,52.00
2023-01-12T07:09:35.647Z,56.00
2023-01-12T07:10:35.621Z,52.00
2023-01-12T07:11:35.635Z,56.00
2023-01-12T07:12:35.622Z,52.00
2023-01-12T07:13:35.833Z,64.00
2023-01-12T07:14:35.587Z,60.00
2023-01-12T07:15:35.630Z,60.00
2023-01-12T07:16:35.572Z,64.00
2023-01-12T07:17:37.269Z,68.00
2023-01-12T07:18:35.537Z,72.00
2023-01-12T07:19:35.550Z,68.00
2023-01-12T07:20:35.585Z,68.00
2023-01-12T07:21:35.502Z,64.00
2023-01-12T07:22:35.511Z,68.00
2023-01-12T07:23:35.482Z,68.00
2023-01-12T07:24:35.460Z,68.00
2023-01-12T07:25:35.464Z,72.00
2023-01-12T07:26:35.454Z,68.00
2023-01-12T07:27:35.433Z,68.00
2023-01-12T07:28:35.415Z,72.00
2023-01-12T07:29:35.430Z,72.00
2023-01-12T07:30:35.386Z,80.00
2023-01-12T07:31:35.381Z,92.00
2023-01-12T07:32:35.373Z,92.00
2023-01-12T07:33:35.397Z,96.00
2023-01-12T07:34:35.374Z,104.00
2023-01-12T07:35:35.335Z,112.00
2023-01-12T07:36:35.382Z,120.00
2023-01-12T07:37:35.319Z,140.00
2023-01-12T07:38:35.346Z,152.00
2023-01-12T07:39:35.311Z,152.00
2023-01-12T07:40:35.277Z,152.00
2023-01-12T07:41:35.283Z,156.00
2023-01-12T07:42:35.256Z,160.00
2023-01-12T07:43:35.261Z,164.00
2023-01-12T07:44:35.231Z,176.00
2023-01-12T07:45:35.218Z,188.00
2023-01-12T07:46:35.284Z,200.00
2023-01-12T07:47:35.206Z,200.00
2023-01-12T07:48:35.193Z,232.00
2023-01-12T07:49:35.219Z,248.00
2023-01-12T07:50:35.157Z,248.00
2023-01-12T07:51:35.160Z,248.00
2023-01-12T07:52:35.152Z,256.00
2023-01-12T07:53:35.148Z,276.00
2023-01-12T07:54:35.111Z,300.00
2023-01-12T07:55:35.138Z,320.00
2023-01-12T07:56:35.111Z,336.00
2023-01-12T07:57:35.082Z,336.00
2023-01-12T07:58:35.073Z,360.00
2023-01-12T07:59:35.057Z,356.00
2023-01-12T08:00:35.046Z,340.00
2023-01-12T08:01:35.220Z,352.00
2023-01-12T08:02:35.018Z,332.00
2023-01-12T08:03:35.013Z,332.00
2023-01-12T08:04:35.038Z,324.00
2023-01-12T08:05:35.028Z,336.00
2023-01-12T08:06:34.972Z,336.00
2023-01-12T08:07:34.996Z,336.00
2023-01-12T08:08:35.004Z,320.00
2023-01-12T08:09:34.973Z,320.00
2023-01-12T08:10:34.938Z,316.00
2023-01-12T08:11:34.928Z,320.00
2023-01-12T08:12:34.908Z,316.00
2023-01-12T08:13:34.899Z,308.00
2023-01-12T08:14:34.901Z,332.00
2023-01-12T08:15:34.898Z,348.00
2023-01-12T08:16:34.862Z,356.00
2023-01-12T08:17:34.857Z,360.00
2023-01-12T08:18:34.871Z,352.00
2023-01-12T08:19:34.847Z,376.00
2023-01-12T08:20:34.834Z,384.00
2023-01-12T08:21:34.830Z,396.00
2023-01-12T08:22:34.807Z,404.00
2023-01-12T08:23:34.801Z,428.00
2023-01-12T08:24:34.805Z,428.00
2023-01-12T08:25:34.766Z,400.00
2023-01-12T08:26:34.761Z,400.00
2023-01-12T08:27:34.735Z,396.00
2023-01-12T08:28:34.753Z,388.00
2023-01-12T08:29:34.746Z,380.00
2023-01-12T08:30:34.728Z,396.00
2023-01-12T08:31:34.691Z,396.00
2023-01-12T08:32:34.671Z,392.00
2023-01-12T08:33:34.784Z,404.00
2023-01-12T08:34:34.688Z,444.00
2023-01-12T08:35:34.664Z,476.00
2023-01-12T08:36:34.626Z,484.00
2023-01-12T08:37:34.633Z,456.00
2023-01-12T08:38:34.603Z,472.00
2023-01-12T08:39:34.645Z,448.00
2023-01-12T08:40:34.615Z,460.00
2023-01-12T08:41:34.578Z,472.00
2023-01-12T08:42:34.564Z,492.00
2023-01-12T08:43:34.548Z,476.00
2023-01-12T08:44:34.534Z,464.00
2023-01-12T08:45:34.544Z,460.00
2023-01-12T08:46:34.604Z,496.00
2023-01-12T08:47:34.594Z,520.00
2023-01-12T08:48:34.501Z,556.00
2023-01-12T08:49:34.496Z,668.00
2023-01-12T08:50:34.487Z,704.00
2023-01-12T08:51:34.492Z,708.00
2023-01-12T08:52:34.460Z,712.00
2023-01-12T08:53:34.452Z,680.00
2023-01-12T08:54:36.846Z,680.00
2023-01-12T08:55:34.433Z,664.00
2023-01-12T08:56:34.444Z,648.00
2023-01-12T08:57:34.423Z,648.00
2023-01-12T09:00:31.782Z,624.00
2023-01-12T09:01:31.809Z,628.00
2023-01-12T09:02:31.659Z,640.00
2023-01-12T09:03:31.597Z,648.00
2023-01-12T09:04:31.584Z,644.00
2023-01-12T09:05:31.595Z,608.00
2023-01-12T09:06:31.601Z,616.00
2023-01-12T09:07:31.597Z,600.00
2023-01-12T09:08:31.579Z,604.00
2023-01-12T09:09:31.560Z,592.00
2023-01-12T09:10:31.543Z,592.00
2023-01-12T09:11:31.505Z,596.00
2023-01-12T09:12:31.502Z,616.00
2023-01-12T09:13:31.662Z,640.00
2023-01-12T09:14:31.468Z,644.00
2023-01-12T09:15:31.481Z,656.00
2023-01-12T09:16:35.135Z,664.00
2023-01-12T09:17:31.599Z,672.00
2023-01-12T09:18:32.044Z,672.00
2023-01-12T09:19:32.303Z,680.00
2023-01-12T09:20:31.555Z,688.00
2023-01-12T09:21:31.608Z,696.00
2023-01-12T09:22:31.383Z,708.00
2023-01-12T09:23:31.532Z,708.00
2023-01-12T09:24:31.350Z,708.00
2023-01-12T09:25:31.349Z,716.00
2023-01-12T09:26:31.327Z,720.00
2023-01-12T09:27:31.343Z,696.00
2023-01-12T09:28:31.321Z,720.00
2023-01-12T09:29:31.305Z,732.00
2023-01-12T09:30:31.317Z,740.00
2023-01-12T09:31:31.382Z,744.00
2023-01-12T09:32:36.788Z,748.00
2023-01-12T09:33:32.252Z,756.00
2023-01-12T09:34:31.337Z,740.00
2023-01-12T09:35:31.259Z,728.00
2023-01-12T09:36:31.208Z,736.00
2023-01-12T09:37:31.223Z,760.00
2023-01-12T09:38:31.191Z,776.00
2023-01-12T09:39:31.231Z,792.00
2023-01-12T09:40:31.166Z,808.00
2023-01-12T09:41:31.167Z,804.00
2023-01-12T09:42:31.140Z,808.00
2023-01-12T09:43:31.131Z,832.00
2023-01-12T09:44:31.155Z,780.00
2023-01-12T09:45:31.201Z,772.00
2023-01-12T09:46:31.108Z,772.00
2023-01-12T09:47:31.097Z,740.00
2023-01-12T09:48:31.082Z,740.00
2023-01-12T09:49:31.090Z,724.00
2023-01-12T09:50:31.081Z,748.00
2023-01-12T09:51:31.041Z,792.00
2023-01-12T09:52:31.022Z,732.00
2023-01-12T09:53:31.041Z,760.00
2023-01-12T09:54:31.024Z,780.00
2023-01-12T09:55:30.997Z,840.00
2023-01-12T09:56:31.026Z,832.00
2023-01-12T09:57:30.979Z,848.00
2023-01-12T09:58:30.989Z,884.00
2023-01-12T09:59:30.981Z,824.00
2023-01-12T10:00:32.554Z,816.00
2023-01-12T10:01:30.978Z,832.00
2023-01-12T10:02:33.177Z,852.00
2023-01-12T10:03:30.994Z,860.00
2023-01-12T10:04:30.893Z,848.00
2023-01-12T10:05:38.809Z,800.00
2023-01-12T10:06:31.885Z,792.00
2023-01-12T10:07:30.874Z,820.00
2023-01-12T10:08:30.840Z,760.00
2023-01-12T10:09:30.836Z,688.00
2023-01-12T10:10:30.822Z,624.00
2023-01-12T10:11:30.838Z,676.00
2023-01-12T10:12:30.804Z,660.00
2023-01-12T10:13:30.792Z,716.00
2023-01-12T10:14:30.773Z,804.00
2023-01-12T10:15:30.808Z,856.00
2023-01-12T10:16:30.819Z,820.00
2023-01-12T10:17:38.634Z,844.00
2023-01-12T10:18:31.731Z,812.00
2023-01-12T10:19:30.756Z,804.00
2023-01-12T10:20:30.734Z,920.00
2023-01-12T10:21:30.719Z,916.00
2023-01-12T10:22:30.684Z,964.00
2023-01-12T10:23:31.579Z,956.00
2023-01-12T10:24:30.700Z,984.00
2023-01-12T10:25:30.675Z,928.00
2023-01-12T10:26:30.678Z,984.00
2023-01-12T10:27:30.678Z,964.00
2023-01-12T10:28:30.610Z,972.00
2023-01-12T10:29:30.602Z,996.00
2023-01-12T10:30:30.641Z,936.00
2023-01-12T10:31:30.647Z,892.00
2023-01-12T10:32:34.520Z,800.00
2023-01-12T10:33:31.570Z,784.00
2023-01-12T10:34:30.573Z,764.00
2023-01-12T10:35:30.565Z,744.00
2023-01-12T10:36:30.523Z,680.00
2023-01-12T10:37:30.542Z,620.00
2023-01-12T10:38:30.523Z,608.00
2023-01-12T10:39:30.494Z,600.00
2023-01-12T10:40:30.505Z,628.00
2023-01-12T10:41:30.469Z,640.00
2023-01-12T10:42:30.450Z,656.00
2023-01-12T10:43:30.454Z,612.00
2023-01-12T10:44:30.453Z,628.00
2023-01-12T10:45:30.543Z,644.00
2023-01-12T10:46:30.408Z,644.00
2023-01-12T10:47:30.396Z,700.00
2023-01-12T10:48:30.424Z,760.00
2023-01-12T10:49:30.399Z,852.00
2023-01-12T10:50:30.377Z,968.00
2023-01-12T10:51:30.444Z,1000.00
2023-01-12T10:52:30.349Z,1044.00
2023-01-12T10:53:30.356Z,1076.00
2023-01-12T10:54:30.324Z,1064.00
2023-01-12T10:55:30.307Z,1092.00
2023-01-12T10:56:30.311Z,1080.00
2023-01-12T10:57:30.300Z,1092.00
2023-01-12T10:58:30.285Z,1084.00
2023-01-12T10:59:30.308Z,1064.00
2023-01-12T11:00:30.259Z,1032.00
2023-01-12T11:01:31.071Z,1012.00
2023-01-12T11:02:30.500Z,1016.00
2023-01-12T11:03:30.286Z,1000.00
2023-01-12T11:04:38.930Z,996.00
2023-01-12T11:05:30.314Z,996.00
2023-01-12T11:06:30.180Z,972.00
2023-01-12T11:07:30.183Z,964.00
2023-01-12T11:08:30.184Z,932.00
2023-01-12T11:09:30.176Z,928.00
2023-01-12T11:10:30.218Z,932.00
2023-01-12T11:11:30.154Z,928.00
2023-01-12T11:12:30.267Z,916.00
2023-01-12T11:13:30.098Z,920.00
2023-01-12T11:14:30.102Z,900.00
2023-01-12T11:15:30.102Z,896.00
2023-01-12T11:16:30.205Z,900.00
2023-01-12T11:17:30.068Z,892.00
2023-01-12T11:18:30.040Z,888.00
2023-01-12T11:19:30.031Z,876.00
2023-01-12T11:20:30.060Z,844.00
2023-01-12T11:21:30.031Z,844.00
2023-01-12T11:22:30.040Z,852.00
2023-01-12T11:23:29.988Z,860.00
2023-01-12T11:24:30.004Z,860.00
2023-01-12T11:25:29.956Z,864.00
2023-01-12T11:26:29.953Z,864.00
2023-01-12T11:27:29.972Z,876.00
2023-01-12T11:28:29.980Z,880.00
2023-01-12T11:29:29.932Z,904.00
2023-01-12T11:30:29.926Z,920.00
2023-01-12T11:31:29.901Z,908.00
2023-01-12T11:32:29.908Z,880.00
2023-01-12T11:33:29.875Z,856.00
2023-01-12T11:34:29.912Z,820.00
2023-01-12T11:35:29.924Z,792.00
2023-01-12T11:36:29.857Z,784.00
2023-01-12T11:37:29.818Z,760.00
2023-01-12T11:38:29.837Z,756.00
2023-01-12T11:39:29.795Z,768.00
2023-01-12T11:40:29.829Z,788.00
2023-01-12T11:41:30.074Z,800.00
2023-01-12T11:42:29.852Z,836.00
2023-01-12T11:43:29.763Z,864.00
2023-01-12T11:44:29.772Z,900.00
2023-01-12T11:45:29.831Z,940.00
2023-01-12T11:46:29.827Z,952.00
2023-01-12T11:47:29.744Z,964.00
2023-01-12T11:48:29.795Z,976.00
2023-01-12T11:49:29.795Z,996.00
2023-01-12T11:50:29.767Z,1004.00
2023-01-12T11:51:29.690Z,976.00
2023-01-12T11:52:29.683Z,944.00
2023-01-12T11:53:29.664Z,908.00
2023-01-12T11:54:29.752Z,864.00
2023-01-12T11:55:29.708Z,832.00
2023-01-12T11:56:29.798Z,800.00
2023-01-12T11:57:29.688Z,756.00
2023-01-12T11:58:29.710Z,728.00
2023-01-12T11:59:29.615Z,676.00
2023-01-12T12:00:29.596Z,672.00
2023-01-12T12:01:29.604Z,696.00
2023-01-12T12:02:29.698Z,700.00
2023-01-12T12:03:29.563Z,700.00
2023-01-12T12:04:37.584Z,700.00
2023-01-12T12:05:29.711Z,708.00
2023-01-12T12:06:29.640Z,712.00
2023-01-12T12:07:29.625Z,716.00
2023-01-12T12:08:29.491Z,708.00
2023-01-12T12:09:29.464Z,720.00
2023-01-12T12:10:29.487Z,740.00
2023-01-12T12:11:29.439Z,760.00
2023-01-12T12:12:29.443Z,768.00
2023-01-12T12:13:29.486Z,772.00
2023-01-12T12:14:29.415Z,780.00
2023-01-12T12:15:29.426Z,764.00
2023-01-12T12:16:29.412Z,724.00
2023-01-12T12:17:29.406Z,680.00
2023-01-12T12:18:29.353Z,620.00
2023-01-12T12:19:29.365Z,580.00
2023-01-12T12:20:29.356Z,556.00
2023-01-12T12:21:38.208Z,548.00
2023-01-12T12:22:29.391Z,528.00
2023-01-12T12:23:29.468Z,500.00
2023-01-12T12:24:29.355Z,468.00
2023-01-12T12:25:29.310Z,452.00
2023-01-12T12:26:29.289Z,436.00
2023-01-12T12:27:29.252Z,416.00
2023-01-12T12:28:29.259Z,400.00
2023-01-12T12:29:29.304Z,392.00
2023-01-12T12:30:29.247Z,380.00
2023-01-12T12:31:29.226Z,360.00
2023-01-12T12:32:36.833Z,344.00
2023-01-12T12:33:29.309Z,328.00
2023-01-12T12:34:29.226Z,308.00
2023-01-12T12:35:29.219Z,300.00
2023-01-12T12:36:29.160Z,300.00
2023-01-12T12:37:29.212Z,312.00
2023-01-12T12:38:29.155Z,324.00
2023-01-12T12:39:29.141Z,336.00
2023-01-12T12:40:29.161Z,340.00
2023-01-12T12:41:29.101Z,348.00
2023-01-12T12:42:29.100Z,344.00
2023-01-12T12:43:29.127Z,336.00
2023-01-12T12:44:29.114Z,336.00
2023-01-12T12:45:29.092Z,344.00
2023-01-12T12:46:36.783Z,364.00
2023-01-12T12:47:29.060Z,372.00
2023-01-12T12:48:29.015Z,372.00
2023-01-12T12:49:29.010Z,368.00
2023-01-12T12:50:29.030Z,364.00
2023-01-12T12:51:29.029Z,360.00
2023-01-12T12:52:29.215Z,368.00
2023-01-12T12:53:29.104Z,384.00
2023-01-12T12:54:28.946Z,408.00
2023-01-12T12:55:28.965Z,412.00
2023-01-12T12:56:28.959Z,416.00
2023-01-12T12:57:28.900Z,416.00